sensor_id;sensor_type;location;lat;lon;timestamp;P1;durP1;ratioP1;P2;durP2;ratioP2
64075;SDS011;50327;51.328;12.324;2023-09-18T00:01:17;8.52;;;3.40;;
64075;SDS011;50327;51.328;12.324;2023-09-18T00:03:44;10.80;;;3.42;;
64075;SDS011;50327;51.328;12.324;2023-09-18T00:06:10;5.63;;;3.15;;
64075;SDS011;50327;51.328;12.324;2023-09-18T00:08:36;7.03;;;3.60;;
64075;SDS011;50327;51.328;12.324;2023-09-18T00:11:02;5.10;;;3.13;;
64075;SDS011;50327;51.328;12.324;2023-09-18T00:13:27;5.70;;;2.97;;
64075;SDS011;50327;51.328;12.324;2023-09-18T00:15:56;5.53;;;2.97;;
64075;SDS011;50327;51.328;12.324;2023-09-18T00:18:24;9.05;;;3.80;;
64075;SDS011;50327;51.328;12.324;2023-09-18T00:20:49;5.53;;;2.90;;
64075;SDS011;50327;51.328;12.324;2023-09-18T00:23:16;5.97;;;3.75;;
64075;SDS011;50327;51.328;12.324;2023-09-18T00:25:42;9.83;;;3.07;;
64075;SDS011;50327;51.328;12.324;2023-09-18T00:28:07;5.57;;;3.13;;
64075;SDS011;50327;51.328;12.324;2023-09-18T00:30:32;10.98;;;3.53;;
64075;SDS011;50327;51.328;12.324;2023-09-18T00:32:58;8.60;;;3.57;;
64075;SDS011;50327;51.328;12.324;2023-09-18T00:35:23;10.50;;;3.53;;
64075;SDS011;50327;51.328;12.324;2023-09-18T00:37:49;6.68;;;2.97;;
64075;SDS011;50327;51.328;12.324;2023-09-18T00:40:14;7.63;;;3.85;;
64075;SDS011;50327;51.328;12.324;2023-09-18T00:42:39;8.63;;;3.30;;
64075;SDS011;50327;51.328;12.324;2023-09-18T00:45:05;5.40;;;3.10;;
64075;SDS011;50327;51.328;12.324;2023-09-18T00:47:30;5.90;;;3.10;;
64075;SDS011;50327;51.328;12.324;2023-09-18T00:49:55;7.90;;;2.83;;
64075;SDS011;50327;51.328;12.324;2023-09-18T00:52:21;5.85;;;3.35;;
64075;SDS011;50327;51.328;12.324;2023-09-18T00:54:48;7.95;;;3.25;;
64075;SDS011;50327;51.328;12.324;2023-09-18T00:57:13;8.55;;;3.33;;
64075;SDS011;50327;51.328;12.324;2023-09-18T00:59:38;5.72;;;3.50;;
64075;SDS011;50327;51.328;12.324;2023-09-18T01:02:04;6.65;;;3.53;;
64075;SDS011;50327;51.328;12.324;2023-09-18T01:04:29;6.30;;;3.20;;
64075;SDS011;50327;51.328;12.324;2023-09-18T01:06:55;7.57;;;3.45;;
64075;SDS011;50327;51.328;12.324;2023-09-18T01:09:21;6.35;;;3.53;;
64075;SDS011;50327;51.328;12.324;2023-09-18T01:17:09;8.25;;;3.72;;
64075;SDS011;50327;51.328;12.324;2023-09-18T01:19:39;6.13;;;3.55;;
64075;SDS011;50327;51.328;12.324;2023-09-18T01:22:05;7.03;;;3.58;;
64075;SDS011;50327;51.328;12.324;2023-09-18T01:24:32;6.70;;;3.65;;
64075;SDS011;50327;51.328;12.324;2023-09-18T01:26:57;6.05;;;3.65;;
64075;SDS011;50327;51.328;12.324;2023-09-18T01:29:22;6.60;;;3.40;;
64075;SDS011;50327;51.328;12.324;2023-09-18T01:31:47;6.10;;;2.90;;
64075;SDS011;50327;51.328;12.324;2023-09-18T01:34:14;7.13;;;3.35;;
64075;SDS011;50327;51.328;12.324;2023-09-18T01:36:40;8.73;;;3.38;;
64075;SDS011;50327;51.328;12.324;2023-09-18T01:39:05;7.03;;;3.50;;
64075;SDS011;50327;51.328;12.324;2023-09-18T01:41:31;7.25;;;3.47;;
64075;SDS011;50327;51.328;12.324;2023-09-18T01:43:57;11.82;;;3.30;;
64075;SDS011;50327;51.328;12.324;2023-09-18T01:46:22;11.57;;;4.03;;
64075;SDS011;50327;51.328;12.324;2023-09-18T01:48:48;8.90;;;3.45;;
64075;SDS011;50327;51.328;12.324;2023-09-18T01:51:16;6.65;;;3.33;;
64075;SDS011;50327;51.328;12.324;2023-09-18T01:53:41;5.93;;;3.63;;
64075;SDS011;50327;51.328;12.324;2023-09-18T01:56:07;7.72;;;4.13;;
64075;SDS011;50327;51.328;12.324;2023-09-18T01:58:33;6.57;;;3.25;;
64075;SDS011;50327;51.328;12.324;2023-09-18T02:01:00;6.00;;;3.42;;
64075;SDS011;50327;51.328;12.324;2023-09-18T02:03:25;10.50;;;3.42;;
64075;SDS011;50327;51.328;12.324;2023-09-18T02:05:51;6.07;;;3.33;;
64075;SDS011;50327;51.328;12.324;2023-09-18T02:08:16;5.72;;;2.95;;
64075;SDS011;50327;51.328;12.324;2023-09-18T02:10:41;14.50;;;3.58;;
64075;SDS011;50327;51.328;12.324;2023-09-18T02:13:06;6.77;;;3.73;;
64075;SDS011;50327;51.328;12.324;2023-09-18T02:15:32;6.70;;;3.42;;
64075;SDS011;50327;51.328;12.324;2023-09-18T02:17:57;7.82;;;3.22;;
64075;SDS011;50327;51.328;12.324;2023-09-18T02:20:22;6.38;;;2.97;;
64075;SDS011;50327;51.328;12.324;2023-09-18T02:22:48;6.82;;;3.60;;
64075;SDS011;50327;51.328;12.324;2023-09-18T02:25:13;6.15;;;3.58;;
64075;SDS011;50327;51.328;12.324;2023-09-18T02:27:38;8.90;;;3.90;;
64075;SDS011;50327;51.328;12.324;2023-09-18T02:30:04;6.75;;;3.83;;
64075;SDS011;50327;51.328;12.324;2023-09-18T02:32:29;8.35;;;3.35;;
64075;SDS011;50327;51.328;12.324;2023-09-18T02:34:55;6.85;;;3.55;;
64075;SDS011;50327;51.328;12.324;2023-09-18T02:37:20;5.63;;;3.53;;
64075;SDS011;50327;51.328;12.324;2023-09-18T02:39:45;8.73;;;3.90;;
64075;SDS011;50327;51.328;12.324;2023-09-18T02:42:11;8.65;;;3.33;;
64075;SDS011;50327;51.328;12.324;2023-09-18T02:44:36;7.10;;;3.80;;
64075;SDS011;50327;51.328;12.324;2023-09-18T02:47:01;7.55;;;3.78;;
64075;SDS011;50327;51.328;12.324;2023-09-18T02:49:26;13.18;;;5.35;;
64075;SDS011;50327;51.328;12.324;2023-09-18T02:51:52;6.65;;;3.60;;
64075;SDS011;50327;51.328;12.324;2023-09-18T02:54:17;9.02;;;3.95;;
64075;SDS011;50327;51.328;12.324;2023-09-18T02:56:42;6.20;;;3.33;;
64075;SDS011;50327;51.328;12.324;2023-09-18T02:59:08;7.18;;;3.45;;
64075;SDS011;50327;51.328;12.324;2023-09-18T03:01:33;6.78;;;4.00;;
64075;SDS011;50327;51.328;12.324;2023-09-18T03:03:59;6.25;;;3.55;;
64075;SDS011;50327;51.328;12.324;2023-09-18T03:06:24;10.73;;;4.17;;
64075;SDS011;50327;51.328;12.324;2023-09-18T03:08:50;6.22;;;3.70;;
64075;SDS011;50327;51.328;12.324;2023-09-18T03:11:15;8.27;;;4.00;;
64075;SDS011;50327;51.328;12.324;2023-09-18T03:13:45;6.28;;;3.53;;
64075;SDS011;50327;51.328;12.324;2023-09-18T03:16:11;13.00;;;4.20;;
64075;SDS011;50327;51.328;12.324;2023-09-18T03:18:37;7.80;;;3.65;;
64075;SDS011;50327;51.328;12.324;2023-09-18T03:21:02;7.30;;;3.85;;
64075;SDS011;50327;51.328;12.324;2023-09-18T03:23:27;11.10;;;3.45;;
64075;SDS011;50327;51.328;12.324;2023-09-18T03:25:52;15.57;;;4.60;;
64075;SDS011;50327;51.328;12.324;2023-09-18T03:28:18;10.90;;;4.80;;
64075;SDS011;50327;51.328;12.324;2023-09-18T03:30:43;8.05;;;4.35;;
64075;SDS011;50327;51.328;12.324;2023-09-18T03:33:08;7.70;;;3.78;;
64075;SDS011;50327;51.328;12.324;2023-09-18T03:35:36;6.75;;;3.70;;
64075;SDS011;50327;51.328;12.324;2023-09-18T03:38:09;9.20;;;3.78;;
64075;SDS011;50327;51.328;12.324;2023-09-18T03:40:35;8.63;;;3.70;;
64075;SDS011;50327;51.328;12.324;2023-09-18T03:43:00;6.93;;;4.13;;
64075;SDS011;50327;51.328;12.324;2023-09-18T03:45:25;6.87;;;4.13;;
64075;SDS011;50327;51.328;12.324;2023-09-18T03:47:50;8.60;;;4.00;;
64075;SDS011;50327;51.328;12.324;2023-09-18T03:50:16;7.60;;;4.25;;
64075;SDS011;50327;51.328;12.324;2023-09-18T03:52:41;7.32;;;3.60;;
64075;SDS011;50327;51.328;12.324;2023-09-18T03:55:07;6.43;;;3.88;;
64075;SDS011;50327;51.328;12.324;2023-09-18T03:57:33;9.70;;;4.20;;
64075;SDS011;50327;51.328;12.324;2023-09-18T03:59:58;7.80;;;4.28;;
64075;SDS011;50327;51.328;12.324;2023-09-18T04:02:24;6.18;;;4.03;;
64075;SDS011;50327;51.328;12.324;2023-09-18T04:04:49;13.00;;;4.57;;
64075;SDS011;50327;51.328;12.324;2023-09-18T04:07:14;7.75;;;4.28;;
64075;SDS011;50327;51.328;12.324;2023-09-18T04:09:41;8.30;;;4.20;;
64075;SDS011;50327;51.328;12.324;2023-09-18T04:12:06;7.25;;;3.67;;
64075;SDS011;50327;51.328;12.324;2023-09-18T04:14:32;7.13;;;3.88;;
64075;SDS011;50327;51.328;12.324;2023-09-18T04:16:57;7.65;;;3.80;;
64075;SDS011;50327;51.328;12.324;2023-09-18T04:19:22;7.85;;;3.72;;
64075;SDS011;50327;51.328;12.324;2023-09-18T04:21:48;8.18;;;4.40;;
64075;SDS011;50327;51.328;12.324;2023-09-18T04:24:13;8.50;;;4.40;;
64075;SDS011;50327;51.328;12.324;2023-09-18T04:26:38;12.77;;;5.22;;
64075;SDS011;50327;51.328;12.324;2023-09-18T04:29:04;9.00;;;3.97;;
64075;SDS011;50327;51.328;12.324;2023-09-18T04:31:30;13.05;;;3.80;;
64075;SDS011;50327;51.328;12.324;2023-09-18T04:33:55;6.43;;;3.85;;
64075;SDS011;50327;51.328;12.324;2023-09-18T04:36:21;8.90;;;4.22;;
64075;SDS011;50327;51.328;12.324;2023-09-18T04:38:46;7.15;;;4.30;;
64075;SDS011;50327;51.328;12.324;2023-09-18T04:41:11;10.13;;;4.10;;
64075;SDS011;50327;51.328;12.324;2023-09-18T04:43:37;6.57;;;3.70;;
64075;SDS011;50327;51.328;12.324;2023-09-18T04:46:03;8.25;;;3.97;;
64075;SDS011;50327;51.328;12.324;2023-09-18T04:48:30;7.95;;;4.03;;
64075;SDS011;50327;51.328;12.324;2023-09-18T04:50:55;6.57;;;4.07;;
64075;SDS011;50327;51.328;12.324;2023-09-18T04:53:20;8.20;;;3.95;;
64075;SDS011;50327;51.328;12.324;2023-09-18T04:55:46;12.68;;;4.88;;
64075;SDS011;50327;51.328;12.324;2023-09-18T04:58:14;9.15;;;4.57;;
64075;SDS011;50327;51.328;12.324;2023-09-18T05:00:40;11.27;;;4.32;;
64075;SDS011;50327;51.328;12.324;2023-09-18T05:03:06;7.30;;;4.10;;
64075;SDS011;50327;51.328;12.324;2023-09-18T05:05:33;9.18;;;4.13;;
64075;SDS011;50327;51.328;12.324;2023-09-18T05:07:58;7.32;;;3.85;;
64075;SDS011;50327;51.328;12.324;2023-09-18T05:10:24;14.05;;;4.32;;
64075;SDS011;50327;51.328;12.324;2023-09-18T05:12:49;7.68;;;4.13;;
64075;SDS011;50327;51.328;12.324;2023-09-18T05:15:15;11.02;;;4.00;;
64075;SDS011;50327;51.328;12.324;2023-09-18T05:20:07;6.78;;;3.70;;
64075;SDS011;50327;51.328;12.324;2023-09-18T05:22:33;13.50;;;4.20;;
64075;SDS011;50327;51.328;12.324;2023-09-18T05:24:58;8.88;;;3.63;;
64075;SDS011;50327;51.328;12.324;2023-09-18T05:27:24;10.27;;;4.60;;
64075;SDS011;50327;51.328;12.324;2023-09-18T05:29:50;8.90;;;4.22;;
64075;SDS011;50327;51.328;12.324;2023-09-18T05:32:15;8.25;;;4.38;;
64075;SDS011;50327;51.328;12.324;2023-09-18T05:34:40;11.23;;;4.90;;
64075;SDS011;50327;51.328;12.324;2023-09-18T05:37:05;8.18;;;5.20;;
64075;SDS011;50327;51.328;12.324;2023-09-18T05:39:31;10.07;;;5.07;;
64075;SDS011;50327;51.328;12.324;2023-09-18T05:41:56;10.65;;;4.65;;
64075;SDS011;50327;51.328;12.324;2023-09-18T05:44:23;18.50;;;4.97;;
64075;SDS011;50327;51.328;12.324;2023-09-18T05:46:48;11.02;;;4.65;;
64075;SDS011;50327;51.328;12.324;2023-09-18T05:49:14;7.88;;;4.28;;
64075;SDS011;50327;51.328;12.324;2023-09-18T05:51:39;10.30;;;4.00;;
64075;SDS011;50327;51.328;12.324;2023-09-18T05:54:04;7.65;;;3.83;;
64075;SDS011;50327;51.328;12.324;2023-09-18T05:56:30;9.65;;;3.83;;
64075;SDS011;50327;51.328;12.324;2023-09-18T05:58:55;11.93;;;4.68;;
64075;SDS011;50327;51.328;12.324;2023-09-18T06:01:20;10.95;;;4.20;;
64075;SDS011;50327;51.328;12.324;2023-09-18T06:03:46;8.05;;;4.03;;
64075;SDS011;50327;51.328;12.324;2023-09-18T06:06:12;6.78;;;3.70;;
64075;SDS011;50327;51.328;12.324;2023-09-18T06:08:37;6.40;;;3.50;;
64075;SDS011;50327;51.328;12.324;2023-09-18T06:11:03;9.25;;;4.18;;
64075;SDS011;50327;51.328;12.324;2023-09-18T06:13:28;18.08;;;6.13;;
64075;SDS011;50327;51.328;12.324;2023-09-18T06:15:53;9.50;;;3.72;;
64075;SDS011;50327;51.328;12.324;2023-09-18T06:18:20;10.50;;;3.85;;
64075;SDS011;50327;51.328;12.324;2023-09-18T06:20:49;18.35;;;4.60;;
64075;SDS011;50327;51.328;12.324;2023-09-18T06:23:14;11.80;;;3.90;;
64075;SDS011;50327;51.328;12.324;2023-09-18T06:25:40;8.32;;;4.40;;
64075;SDS011;50327;51.328;12.324;2023-09-18T06:28:05;9.32;;;4.28;;
64075;SDS011;50327;51.328;12.324;2023-09-18T06:30:30;6.72;;;3.78;;
64075;SDS011;50327;51.328;12.324;2023-09-18T06:32:56;15.10;;;4.32;;
64075;SDS011;50327;51.328;12.324;2023-09-18T06:35:22;12.45;;;4.13;;
64075;SDS011;50327;51.328;12.324;2023-09-18T06:37:47;7.10;;;4.05;;
64075;SDS011;50327;51.328;12.324;2023-09-18T06:40:13;8.68;;;3.85;;
64075;SDS011;50327;51.328;12.324;2023-09-18T06:42:38;8.35;;;3.97;;
64075;SDS011;50327;51.328;12.324;2023-09-18T06:45:04;7.45;;;4.22;;
64075;SDS011;50327;51.328;12.324;2023-09-18T06:47:31;11.18;;;4.93;;
64075;SDS011;50327;51.328;12.324;2023-09-18T06:49:57;16.25;;;5.07;;
64075;SDS011;50327;51.328;12.324;2023-09-18T06:52:22;8.70;;;4.88;;
64075;SDS011;50327;51.328;12.324;2023-09-18T06:54:48;10.43;;;4.82;;
64075;SDS011;50327;51.328;12.324;2023-09-18T06:57:13;10.82;;;4.72;;
64075;SDS011;50327;51.328;12.324;2023-09-18T06:59:38;14.38;;;4.57;;
64075;SDS011;50327;51.328;12.324;2023-09-18T07:02:04;12.48;;;4.53;;
64075;SDS011;50327;51.328;12.324;2023-09-18T07:04:29;7.82;;;4.38;;
64075;SDS011;50327;51.328;12.324;2023-09-18T07:06:54;10.95;;;4.10;;
64075;SDS011;50327;51.328;12.324;2023-09-18T07:09:21;11.70;;;4.57;;
64075;SDS011;50327;51.328;12.324;2023-09-18T07:11:48;9.05;;;4.13;;
64075;SDS011;50327;51.328;12.324;2023-09-18T07:14:13;10.10;;;4.00;;
64075;SDS011;50327;51.328;12.324;2023-09-18T07:16:39;12.52;;;4.35;;
64075;SDS011;50327;51.328;12.324;2023-09-18T07:19:05;13.68;;;3.78;;
64075;SDS011;50327;51.328;12.324;2023-09-18T07:21:30;7.07;;;3.85;;
64075;SDS011;50327;51.328;12.324;2023-09-18T07:23:56;7.45;;;4.50;;
64075;SDS011;50327;51.328;12.324;2023-09-18T07:26:21;12.35;;;4.45;;
64075;SDS011;50327;51.328;12.324;2023-09-18T07:28:46;11.98;;;4.47;;
64075;SDS011;50327;51.328;12.324;2023-09-18T07:31:12;6.88;;;3.42;;
64075;SDS011;50327;51.328;12.324;2023-09-18T07:33:39;14.73;;;4.10;;
64075;SDS011;50327;51.328;12.324;2023-09-18T07:36:04;8.45;;;3.28;;
64075;SDS011;50327;51.328;12.324;2023-09-18T07:38:30;11.10;;;4.38;;
64075;SDS011;50327;51.328;12.324;2023-09-18T07:40:56;12.10;;;3.55;;
64075;SDS011;50327;51.328;12.324;2023-09-18T07:43:21;11.60;;;3.83;;
64075;SDS011;50327;51.328;12.324;2023-09-18T07:45:49;15.48;;;3.75;;
64075;SDS011;50327;51.328;12.324;2023-09-18T07:48:14;9.85;;;2.92;;
64075;SDS011;50327;51.328;12.324;2023-09-18T07:50:43;7.35;;;3.40;;
64075;SDS011;50327;51.328;12.324;2023-09-18T07:53:09;7.72;;;3.28;;
64075;SDS011;50327;51.328;12.324;2023-09-18T07:55:34;9.68;;;3.22;;
64075;SDS011;50327;51.328;12.324;2023-09-18T07:57:59;9.70;;;3.40;;
64075;SDS011;50327;51.328;12.324;2023-09-18T08:00:25;8.90;;;3.40;;
64075;SDS011;50327;51.328;12.324;2023-09-18T08:02:53;15.32;;;3.55;;
64075;SDS011;50327;51.328;12.324;2023-09-18T08:05:21;8.95;;;3.47;;
64075;SDS011;50327;51.328;12.324;2023-09-18T08:07:46;6.43;;;3.22;;
64075;SDS011;50327;51.328;12.324;2023-09-18T08:10:12;12.02;;;3.45;;
64075;SDS011;50327;51.328;12.324;2023-09-18T08:12:38;13.43;;;4.72;;
64075;SDS011;50327;51.328;12.324;2023-09-18T08:15:03;14.43;;;3.45;;
64075;SDS011;50327;51.328;12.324;2023-09-18T08:17:30;13.70;;;3.80;;
64075;SDS011;50327;51.328;12.324;2023-09-18T08:19:55;14.75;;;3.80;;
64075;SDS011;50327;51.328;12.324;2023-09-18T08:22:21;10.35;;;3.38;;
64075;SDS011;50327;51.328;12.324;2023-09-18T08:24:46;12.95;;;3.90;;
64075;SDS011;50327;51.328;12.324;2023-09-18T08:27:13;9.98;;;3.03;;
64075;SDS011;50327;51.328;12.324;2023-09-18T08:29:38;7.13;;;3.13;;
64075;SDS011;50327;51.328;12.324;2023-09-18T08:32:04;8.48;;;3.22;;
64075;SDS011;50327;51.328;12.324;2023-09-18T08:34:29;19.35;;;4.63;;
64075;SDS011;50327;51.328;12.324;2023-09-18T08:36:54;8.00;;;2.63;;
64075;SDS011;50327;51.328;12.324;2023-09-18T08:39:19;7.85;;;2.78;;
64075;SDS011;50327;51.328;12.324;2023-09-18T08:41:45;13.00;;;2.92;;
64075;SDS011;50327;51.328;12.324;2023-09-18T08:44:14;6.53;;;3.00;;
64075;SDS011;50327;51.328;12.324;2023-09-18T08:46:39;8.02;;;2.63;;
64075;SDS011;50327;51.328;12.324;2023-09-18T08:49:05;4.57;;;2.53;;
64075;SDS011;50327;51.328;12.324;2023-09-18T08:51:32;6.10;;;3.38;;
64075;SDS011;50327;51.328;12.324;2023-09-18T08:53:57;10.50;;;3.30;;
64075;SDS011;50327;51.328;12.324;2023-09-18T08:56:23;8.75;;;2.92;;
64075;SDS011;50327;51.328;12.324;2023-09-18T08:58:48;8.63;;;2.60;;
64075;SDS011;50327;51.328;12.324;2023-09-18T09:01:14;7.00;;;2.97;;
64075;SDS011;50327;51.328;12.324;2023-09-18T09:03:40;10.02;;;2.92;;
64075;SDS011;50327;51.328;12.324;2023-09-18T09:06:06;6.75;;;2.45;;
64075;SDS011;50327;51.328;12.324;2023-09-18T09:08:32;12.00;;;2.92;;
64075;SDS011;50327;51.328;12.324;2023-09-18T09:10:57;13.98;;;3.13;;
64075;SDS011;50327;51.328;12.324;2023-09-18T09:13:23;10.80;;;2.88;;
64075;SDS011;50327;51.328;12.324;2023-09-18T09:15:51;9.93;;;2.78;;
64075;SDS011;50327;51.328;12.324;2023-09-18T09:18:19;7.55;;;3.10;;
64075;SDS011;50327;51.328;12.324;2023-09-18T09:20:52;9.20;;;2.72;;
64075;SDS011;50327;51.328;12.324;2023-09-18T09:23:18;25.20;;;3.10;;
64075;SDS011;50327;51.328;12.324;2023-09-18T09:25:44;12.77;;;3.20;;
64075;SDS011;50327;51.328;12.324;2023-09-18T09:28:09;9.35;;;3.22;;
64075;SDS011;50327;51.328;12.324;2023-09-18T09:30:34;12.07;;;3.25;;
64075;SDS011;50327;51.328;12.324;2023-09-18T09:33:01;8.75;;;2.80;;
64075;SDS011;50327;51.328;12.324;2023-09-18T09:35:28;9.32;;;3.10;;
64075;SDS011;50327;51.328;12.324;2023-09-18T09:37:57;8.02;;;2.50;;
64075;SDS011;50327;51.328;12.324;2023-09-18T09:40:24;11.48;;;3.08;;
64075;SDS011;50327;51.328;12.324;2023-09-18T09:42:56;11.43;;;2.72;;
64075;SDS011;50327;51.328;12.324;2023-09-18T09:45:29;5.40;;;2.58;;
64075;SDS011;50327;51.328;12.324;2023-09-18T09:47:55;8.35;;;2.85;;
64075;SDS011;50327;51.328;12.324;2023-09-18T09:50:21;7.07;;;2.60;;
64075;SDS011;50327;51.328;12.324;2023-09-18T09:52:47;8.15;;;2.50;;
64075;SDS011;50327;51.328;12.324;2023-09-18T09:55:20;13.88;;;3.38;;
64075;SDS011;50327;51.328;12.324;2023-09-18T09:57:49;19.73;;;3.28;;
64075;SDS011;50327;51.328;12.324;2023-09-18T10:00:15;16.85;;;3.70;;
64075;SDS011;50327;51.328;12.324;2023-09-18T10:03:00;16.40;;;3.70;;
64075;SDS011;50327;51.328;12.324;2023-09-18T10:05:30;13.60;;;2.90;;
64075;SDS011;50327;51.328;12.324;2023-09-18T10:08:00;7.25;;;2.70;;
64075;SDS011;50327;51.328;12.324;2023-09-18T10:10:35;8.25;;;2.70;;
64075;SDS011;50327;51.328;12.324;2023-09-18T10:13:02;15.10;;;3.58;;
64075;SDS011;50327;51.328;12.324;2023-09-18T10:15:28;10.80;;;2.80;;
64075;SDS011;50327;51.328;12.324;2023-09-18T10:17:56;13.98;;;3.53;;
64075;SDS011;50327;51.328;12.324;2023-09-18T10:20:21;7.15;;;2.45;;
64075;SDS011;50327;51.328;12.324;2023-09-18T10:22:51;7.32;;;2.70;;
64075;SDS011;50327;51.328;12.324;2023-09-18T10:25:20;5.55;;;2.38;;
64075;SDS011;50327;51.328;12.324;2023-09-18T10:27:46;10.63;;;2.75;;
64075;SDS011;50327;51.328;12.324;2023-09-18T10:30:14;12.73;;;3.13;;
64075;SDS011;50327;51.328;12.324;2023-09-18T10:32:39;11.20;;;2.75;;
64075;SDS011;50327;51.328;12.324;2023-09-18T10:35:06;6.93;;;2.65;;
64075;SDS011;50327;51.328;12.324;2023-09-18T10:37:32;11.15;;;2.50;;
64075;SDS011;50327;51.328;12.324;2023-09-18T10:39:58;9.63;;;2.42;;
64075;SDS011;50327;51.328;12.324;2023-09-18T10:42:23;11.85;;;3.40;;
64075;SDS011;50327;51.328;12.324;2023-09-18T10:44:49;12.57;;;3.15;;
64075;SDS011;50327;51.328;12.324;2023-09-18T10:47:15;11.38;;;3.53;;
64075;SDS011;50327;51.328;12.324;2023-09-18T10:49:41;8.82;;;2.85;;
64075;SDS011;50327;51.328;12.324;2023-09-18T10:52:10;11.85;;;3.03;;
64075;SDS011;50327;51.328;12.324;2023-09-18T10:54:36;10.05;;;3.15;;
64075;SDS011;50327;51.328;12.324;2023-09-18T10:57:03;24.10;;;4.72;;
64075;SDS011;50327;51.328;12.324;2023-09-18T10:59:28;56.80;;;4.00;;
64075;SDS011;50327;51.328;12.324;2023-09-18T11:01:54;39.55;;;3.78;;
64075;SDS011;50327;51.328;12.324;2023-09-18T11:04:20;65.60;;;4.93;;
64075;SDS011;50327;51.328;12.324;2023-09-18T11:07:04;72.80;;;4.78;;
64075;SDS011;50327;51.328;12.324;2023-09-18T11:09:31;16.95;;;3.33;;
64075;SDS011;50327;51.328;12.324;2023-09-18T11:17:27;25.15;;;3.03;;
64075;SDS011;50327;51.328;12.324;2023-09-18T11:20:01;12.30;;;3.08;;
64075;SDS011;50327;51.328;12.324;2023-09-18T11:22:27;12.10;;;3.20;;
64075;SDS011;50327;51.328;12.324;2023-09-18T11:24:52;10.57;;;2.92;;
64075;SDS011;50327;51.328;12.324;2023-09-18T11:27:23;15.70;;;3.17;;
64075;SDS011;50327;51.328;12.324;2023-09-18T11:29:51;15.70;;;3.20;;
64075;SDS011;50327;51.328;12.324;2023-09-18T11:32:33;10.05;;;2.50;;
64075;SDS011;50327;51.328;12.324;2023-09-18T11:35:07;20.60;;;3.10;;
64075;SDS011;50327;51.328;12.324;2023-09-18T11:37:33;12.93;;;3.20;;
64075;SDS011;50327;51.328;12.324;2023-09-18T11:39:58;12.13;;;2.77;;
64075;SDS011;50327;51.328;12.324;2023-09-18T11:42:24;10.32;;;2.72;;
64075;SDS011;50327;51.328;12.324;2023-09-18T11:44:51;14.88;;;3.05;;
64075;SDS011;50327;51.328;12.324;2023-09-18T11:47:18;10.77;;;2.28;;
64075;SDS011;50327;51.328;12.324;2023-09-18T11:49:51;11.27;;;2.85;;
64075;SDS011;50327;51.328;12.324;2023-09-18T11:52:21;12.60;;;2.92;;
64075;SDS011;50327;51.328;12.324;2023-09-18T11:54:46;10.07;;;2.72;;
64075;SDS011;50327;51.328;12.324;2023-09-18T11:57:12;19.27;;;3.22;;
64075;SDS011;50327;51.328;12.324;2023-09-18T11:59:39;9.32;;;2.67;;
64075;SDS011;50327;51.328;12.324;2023-09-18T12:02:06;9.37;;;2.80;;
64075;SDS011;50327;51.328;12.324;2023-09-18T12:04:32;9.73;;;2.70;;
64075;SDS011;50327;51.328;12.324;2023-09-18T12:07:00;11.65;;;2.63;;
64075;SDS011;50327;51.328;12.324;2023-09-18T12:09:28;76.15;;;5.82;;
64075;SDS011;50327;51.328;12.324;2023-09-18T12:11:53;44.28;;;4.00;;
64075;SDS011;50327;51.328;12.324;2023-09-18T12:14:20;14.93;;;2.83;;
64075;SDS011;50327;51.328;12.324;2023-09-18T12:16:46;10.98;;;3.17;;
64075;SDS011;50327;51.328;12.324;2023-09-18T12:19:18;12.68;;;3.55;;
64075;SDS011;50327;51.328;12.324;2023-09-18T12:21:45;11.98;;;2.92;;
64075;SDS011;50327;51.328;12.324;2023-09-18T12:26:37;14.75;;;3.50;;
64075;SDS011;50327;51.328;12.324;2023-09-18T12:29:02;13.93;;;4.40;;
64075;SDS011;50327;51.328;12.324;2023-09-18T12:31:29;9.75;;;3.50;;
64075;SDS011;50327;51.328;12.324;2023-09-18T12:33:56;22.98;;;3.72;;
64075;SDS011;50327;51.328;12.324;2023-09-18T12:36:22;16.63;;;3.35;;
64075;SDS011;50327;51.328;12.324;2023-09-18T12:38:56;16.92;;;3.63;;
64075;SDS011;50327;51.328;12.324;2023-09-18T12:41:25;13.52;;;4.10;;
64075;SDS011;50327;51.328;12.324;2023-09-18T12:43:51;11.63;;;2.97;;
64075;SDS011;50327;51.328;12.324;2023-09-18T12:46:16;8.48;;;3.13;;
64075;SDS011;50327;51.328;12.324;2023-09-18T12:48:43;15.00;;;2.85;;
64075;SDS011;50327;51.328;12.324;2023-09-18T12:51:11;16.90;;;3.13;;
64075;SDS011;50327;51.328;12.324;2023-09-18T12:53:37;13.20;;;3.45;;
64075;SDS011;50327;51.328;12.324;2023-09-18T12:56:12;14.75;;;2.70;;
64075;SDS011;50327;51.328;12.324;2023-09-18T12:58:38;20.05;;;2.85;;
64075;SDS011;50327;51.328;12.324;2023-09-18T13:01:04;9.18;;;2.88;;
64075;SDS011;50327;51.328;12.324;2023-09-18T13:03:33;10.95;;;3.05;;
64075;SDS011;50327;51.328;12.324;2023-09-18T13:06:07;7.63;;;3.22;;
64075;SDS011;50327;51.328;12.324;2023-09-18T13:08:33;12.63;;;2.35;;
64075;SDS011;50327;51.328;12.324;2023-09-18T13:10:58;8.25;;;2.65;;
64075;SDS011;50327;51.328;12.324;2023-09-18T13:13:26;14.25;;;2.55;;
64075;SDS011;50327;51.328;12.324;2023-09-18T13:15:51;12.10;;;2.92;;
64075;SDS011;50327;51.328;12.324;2023-09-18T13:18:16;4.25;;;2.10;;
64075;SDS011;50327;51.328;12.324;2023-09-18T13:20:42;10.35;;;2.83;;
64075;SDS011;50327;51.328;12.324;2023-09-18T13:23:08;13.25;;;2.40;;
64075;SDS011;50327;51.328;12.324;2023-09-18T13:25:34;16.52;;;2.70;;
64075;SDS011;50327;51.328;12.324;2023-09-18T13:28:01;9.38;;;2.60;;
64075;SDS011;50327;51.328;12.324;2023-09-18T13:30:27;14.32;;;2.95;;
64075;SDS011;50327;51.328;12.324;2023-09-18T13:33:00;8.27;;;2.58;;
64075;SDS011;50327;51.328;12.324;2023-09-18T13:35:26;8.45;;;2.33;;
64075;SDS011;50327;51.328;12.324;2023-09-18T13:37:51;11.43;;;2.57;;
64075;SDS011;50327;51.328;12.324;2023-09-18T13:40:16;6.90;;;2.80;;
64075;SDS011;50327;51.328;12.324;2023-09-18T13:42:41;9.05;;;2.75;;
64075;SDS011;50327;51.328;12.324;2023-09-18T13:45:07;9.83;;;2.50;;
64075;SDS011;50327;51.328;12.324;2023-09-18T13:47:32;7.88;;;2.88;;
64075;SDS011;50327;51.328;12.324;2023-09-18T13:49:59;7.28;;;2.97;;
64075;SDS011;50327;51.328;12.324;2023-09-18T13:52:28;8.80;;;2.95;;
64075;SDS011;50327;51.328;12.324;2023-09-18T13:54:53;12.32;;;2.80;;
64075;SDS011;50327;51.328;12.324;2023-09-18T13:57:19;7.78;;;2.53;;
64075;SDS011;50327;51.328;12.324;2023-09-18T13:59:44;8.75;;;2.53;;
64075;SDS011;50327;51.328;12.324;2023-09-18T14:02:10;11.38;;;2.42;;
64075;SDS011;50327;51.328;12.324;2023-09-18T14:04:36;12.73;;;3.65;;
64075;SDS011;50327;51.328;12.324;2023-09-18T14:07:01;7.47;;;2.33;;
64075;SDS011;50327;51.328;12.324;2023-09-18T14:09:27;9.73;;;2.42;;
64075;SDS011;50327;51.328;12.324;2023-09-18T14:11:53;12.05;;;3.05;;
64075;SDS011;50327;51.328;12.324;2023-09-18T14:14:19;7.50;;;2.78;;
64075;SDS011;50327;51.328;12.324;2023-09-18T14:16:44;18.65;;;2.60;;
64075;SDS011;50327;51.328;12.324;2023-09-18T14:19:09;10.20;;;2.53;;
64075;SDS011;50327;51.328;12.324;2023-09-18T14:21:36;5.80;;;2.50;;
64075;SDS011;50327;51.328;12.324;2023-09-18T14:24:01;8.27;;;2.95;;
64075;SDS011;50327;51.328;12.324;2023-09-18T14:26:27;5.95;;;2.67;;
64075;SDS011;50327;51.328;12.324;2023-09-18T14:28:52;6.00;;;2.60;;
64075;SDS011;50327;51.328;12.324;2023-09-18T14:31:18;5.70;;;2.22;;
64075;SDS011;50327;51.328;12.324;2023-09-18T14:33:43;7.70;;;3.13;;
64075;SDS011;50327;51.328;12.324;2023-09-18T14:36:08;11.82;;;3.10;;
64075;SDS011;50327;51.328;12.324;2023-09-18T14:38:33;10.70;;;2.70;;